Flight ASX315X

  • Submitted By: Krzysztof H. Blaszkow
  • Departure Airport: Szczecin (EPSC)
  • Arrival Airport: Gdansk im. Lecha Walesy (EPGD)
  • Aircraft: BE58 (SP-MVL)
  • Flight Time: 01.11.30
  • Date Submitted: 12/24/2016
  • Status: Accepted
Flight Details
Gross Revenue:
(5 load / € 55.00 per unit
€ 275.00
Fuel Cost:
(58.5134 fuel used @ 0.45 / unit)
€ 26.33

Additional Log Information:

View Log

[19:22] - Carenado BARON B58 METAL BLUE
[19:22] - Flight ASX315X is ready to depart EPSC with a final destination of EPGD.
[19:22] - Parking Brake Applied
[19:22] - Navigation Lights ON
[19:22] - Beacon Light ON
[19:22] - Instrument Lights ON
[19:22] - Recognition Lights ON
[19:22] - Wing Lights ON
[19:22] - Logo Lights ON
[19:22] - Cabin Lights ON
[19:22] - Boarding
[19:22] - ADF1 - 284.0
[19:22] - ADF2 - 240.0
[19:22] - NAV1 - 114.75
[19:22] - NAV2 - 116.10
[19:22] - COM1 - 122.80
[19:22] - COM2 - 123.45
[19:22] - Transponder - 2200
[19:26] - Parking Brake Released
[19:26] - Taxi Lights ON 3AGL
[19:26] - Pushing Back from the gate
[19:27] - Engine 1 Started
[19:27] - Engine 2 Started
[19:33] - Taxiing to Runway
[19:35] - Landing Lights ON 3AGL
[19:35] - Taxi Lights OFF 3AGL
[19:35] - Strobe Lights ON 3AGL
[19:37] - Taking Off with 5 passengers on board
[19:37] - Take off at 107kts, with a pitch of 5deg and 331lbs of fuel on board
[19:37] - Wind Heading 256 | Wind Speed 13kts | Temperature 6 deg C
[19:37] - METAR Departure: EPSC 241900Z 25014KT 9999 FEW020 BKN025 06/03 Q1015

[19:37] - Gear up at 338AGL
[19:37] - Climbing to TOC
[19:42] - AutoPilot Engaged at 6545AGL
[19:44] - TOC reached
[19:44] - Cruise started
[19:49] - COM2 - 123.45
[19:59] - Landing Lights OFF 8461AGL
[20:00] - Landing Lights ON 8521AGL
[20:06] - NAV1 - 116.10
[20:06] - COM1 - 122.80
[20:10] - TOD reached
[20:10] - Descending to destination
[20:13] - Landing Shortly
[20:19] - Flaps to position 1 at 3222ft and 158kts
[20:19] - AutoPilot Disengaged at 2959AGL
[20:19] - AutoPilot Engaged at 2943AGL
[20:19] - AutoPilot Disengaged at 2924AGL
[20:19] - Gear down at 2198AGL
[20:22] - Landed at -131fpm. With 208lbs of fuel onboard and a pitch angle of 3deg.
[20:22] - Wind Heading 242 | Wind Speed 14kts | Temperature 4 deg C
[20:22] - METAR Arrival: EPGD 242000Z 25012KT 9999 SCT006 BKN015 04/02 Q1010

[20:22] - Flaps to position 0
[20:23] - Taxiing to Gate
[20:23] - Landing Lights OFF 0AGL
[20:24] - Taxi Lights ON 0AGL
[20:24] - Strobe Lights OFF 0AGL
[20:29] - Parking Brake Applied
[20:29] - Arrived safely at EPGD. We hope you enjoyed your flight!
[20:29] - Taxi Lights OFF 0AGL
[20:29] - Engine 1 Stopped
[20:29] - Engine 2 Stopped
[20:34] - Carenado BARON B58 METAL BLUE
[20:34] - MaxSim Rate: 1x
[20:34] - SiouxAcars ver: 1.0.1.2

Comments

Commenter Comment
Krzysztof H. Blaszkow barszczyk sie podgrzeje. No szkoda ze w real nie tu w epgd dzis

Route Map